Main page
METAR-TAF:

METAR-TAF

Airports :

Arad International Airport

Arad, Romania

latitude: 46-12N, longitude: 021-24E, elevation: 117 m

Current weather observation

The report was made 35 minutes ago, at 16:00 UTC
Wind 10 kt from the North
Temperature 20°C
Humidity 32%
Pressure 1022 hPa
Visibility 10 km or more
no clouds below 1500 m and no cumulonimbus

METAR: LRAR 181600Z 01010KT CAVOK 20/03 Q1022

Time: 19:35 (16:35 UTC)

Forecast

The report was made 2 hours and 35 minutes ago, at 14:00 UTC
Forecast valid from 18 at 15 UTC to 19 at 00 UTC
Wind 12 kt from the North
Visibility 10 km or more
no clouds below 1500 m and no cumulonimbus

TAF: LRAR 181400Z 1815/1900 01012KT CAVOK

Weather observations and forecasts of more than 4000 airports (METAR and TAF reports).

The available stations are represented by yellow and red dots on the map.

Hover mouse over dot to see the name of the station.

Then click to see weather observations and forecasts.

To change the map : click on the green buttons with a black cross to zoom in, on the green button with a dash to zoom out, or on the green arrows for adjacent maps.


METAR-TAF: